»·PEaware :: N16RD KSNA-KPOC

N16RD :: KSNA-KPOC

FLIGHT INFORMATION

Flight Status: Arrived
Operator: Privately registered:
United States
More flights under this callsign
Pilot: Brett B. (12105)
Aircraft: MOONEY M-20K/M ENCORE BRAVO
(M20T)
More flights by this aircraft type
Origin: KSNA John Wayne-Orange Co
United States
Destination: KPOC Brackett
United States
More flights between these airports :: More routes between these airports
Route: +SLI V8 POXKU V363 POM
File this flight plan on PilotEdge
Remarks: I-4 Test
Altitude:
(Current/Filed)
4,000ft
Speed:
(Current/Filed)
140kts
Departed: 19-Oct-17 08:14 PM
Arrived: 19-Oct-17 08:51 PM
Distance/Time
Traveled:
25nm/0:37
Distance/Time
To Go:
Arrived

Flight Plot

Page will automatically refresh every two minutes.


Map Options




Map Legend


Flown Route
Filed Route
Departure Airport
Arrival Airport
Navaid (VOR, NDB)
Fix

Horizontal Profiles

Position Reports

Time Latitude Longitude Heading Altitude Ground
Speed
19-Oct-17 19:55 33.675459 -117.871331 22 59ft 0kts
19-Oct-17 19:56 33.675459 -117.871331 22 59ft 0kts
19-Oct-17 19:57 33.675459 -117.871331 22 59ft 0kts
19-Oct-17 19:58 33.675459 -117.871330 22 59ft 0kts
19-Oct-17 19:59 33.675459 -117.871330 22 59ft 0kts
19-Oct-17 20:00 33.675460 -117.871330 22 59ft 0kts
19-Oct-17 20:01 33.675460 -117.871330 22 59ft 0kts
19-Oct-17 20:02 33.675460 -117.871330 22 59ft 0kts
19-Oct-17 20:03 33.675460 -117.871330 22 59ft 0kts
19-Oct-17 20:04 33.675460 -117.871330 22 59ft 0kts
19-Oct-17 20:05 33.675460 -117.871330 22 59ft 0kts
19-Oct-17 20:06 33.675460 -117.871330 22 59ft 0kts
19-Oct-17 20:07 33.675461 -117.871330 22 59ft 0kts
19-Oct-17 20:08 33.675461 -117.871330 22 59ft 0kts
19-Oct-17 20:09 33.675461 -117.871330 22 59ft 0kts
19-Oct-17 20:10 33.675461 -117.871330 22 59ft 0kts
19-Oct-17 20:11 33.675461 -117.871330 22 59ft 0kts
19-Oct-17 20:12 33.675461 -117.871329 22 59ft 0kts
19-Oct-17 20:13 33.675461 -117.871329 22 59ft 0kts
19-Oct-17 20:14 33.675475 -117.871240 130 59ft 0kts
19-Oct-17 20:15 33.676052 -117.870139 26 59ft 14kts
19-Oct-17 20:16 33.680466 -117.867420 24 59ft 13kts
19-Oct-17 20:17 33.680786 -117.866368 117 59ft 0kts
19-Oct-17 20:18 33.680240 -117.865984 210 59ft 14kts
19-Oct-17 20:19 33.660917 -117.877608 198 430ft 100kts
19-Oct-17 20:20 33.641583 -117.903465 235 1135ft 103kts
19-Oct-17 20:21 33.626977 -117.927691 235 1707ft 72kts
19-Oct-17 20:22 33.614789 -117.947672 235 1725ft 73kts
19-Oct-17 20:23 33.602576 -117.967396 235 1759ft 75kts
19-Oct-17 20:24 33.594663 -117.988315 327 2041ft 78kts
19-Oct-17 20:25 33.615477 -117.995998 341 2561ft 78kts
19-Oct-17 20:26 33.635106 -118.002884 341 2900ft 71kts
19-Oct-17 20:27 33.654922 -118.009791 340 3536ft 77kts
19-Oct-17 20:28 33.675629 -118.006757 16 3882ft 77kts
19-Oct-17 20:29 33.695450 -117.999023 338 4069ft 75kts
19-Oct-17 20:30 33.713389 -118.010037 330 4275ft 76kts
19-Oct-17 20:31 33.734841 -118.023569 331 5224ft 101kts
19-Oct-17 20:32 33.764829 -118.042981 331 5069ft 140kts
19-Oct-17 20:33 33.802154 -118.057334 27 5047ft 162kts
19-Oct-17 20:34 33.816605 -118.010387 99 5024ft 158kts
19-Oct-17 20:35 33.807636 -117.960227 82 5026ft 151kts
19-Oct-17 20:36 33.828275 -117.917444 101 5036ft 163kts
19-Oct-17 20:37 33.830848 -117.864609 71 5006ft 163kts
19-Oct-17 20:38 33.842454 -117.815723 71 4972ft 138kts
19-Oct-17 20:39 33.863549 -117.778953 1 5091ft 152kts
19-Oct-17 20:40 33.905237 -117.780434 356 4970ft 147kts
19-Oct-17 20:41 33.943629 -117.783430 346 4957ft 125kts
19-Oct-17 20:42 33.976496 -117.782032 15 5060ft 122kts
19-Oct-17 20:43 34.006087 -117.761875 67 5019ft 126kts
19-Oct-17 20:44 34.015625 -117.720997 71 5005ft 128kts
19-Oct-17 20:45 34.025638 -117.678034 71 4972ft 137kts
19-Oct-17 20:46 34.035022 -117.628744 88 5002ft 159kts
19-Oct-17 20:47 34.032606 -117.579908 92 4959ft 138kts
19-Oct-17 20:48 34.033488 -117.537420 43 4638ft 133kts
19-Oct-17 20:49 34.068926 -117.545935 312 4085ft 144kts
19-Oct-17 20:50 34.080516 -117.588832 271 3399ft 138kts
19-Oct-17 20:51 34.083381 -117.628152 277 2772ft 93kts
19-Oct-17 20:52 34.085107 -117.655821 275 1989ft 129kts
19-Oct-17 20:53 34.087295 -117.686892 275 2363ft 103kts
19-Oct-17 20:54 34.088706 -117.729508 272 1774ft 135kts
19-Oct-17 20:55 34.090185 -117.767497 264 1026ft 102kts
19-Oct-17 20:56 34.090184 -117.779340 328 1014ft 0kts
19-Oct-17 20:57 34.090185 -117.779340 328 1014ft 0kts

Navigation Log

Ident Type
Flight plan parsing failed, navigation log unavailable